createdAt,value
2023-03-16T00:02:12.399Z,19.03
2023-03-16T00:04:39.165Z,19.83
2023-03-16T00:07:10.907Z,18.37
2023-03-16T00:09:40.305Z,17.80
2023-03-16T00:12:14.876Z,18.47
2023-03-16T00:14:46.936Z,17.77
2023-03-16T00:17:19.449Z,17.17
2023-03-16T00:19:54.165Z,13.27
2023-03-16T00:22:23.332Z,12.27
2023-03-16T00:24:49.486Z,10.10
2023-03-16T00:27:16.547Z,8.90
2023-03-16T00:29:47.685Z,7.87
2023-03-16T00:32:20.099Z,7.40
2023-03-16T00:34:47.779Z,6.77
2023-03-16T00:37:17.000Z,7.00
2023-03-16T00:39:45.487Z,7.00
2023-03-16T00:42:15.083Z,7.40
2023-03-16T00:44:41.314Z,6.93
2023-03-16T00:47:08.816Z,6.03
2023-03-16T00:49:35.556Z,7.03
2023-03-16T00:52:06.394Z,7.37
2023-03-16T00:54:33.961Z,6.87
2023-03-16T00:57:01.275Z,7.13
2023-03-16T00:59:29.702Z,6.20
2023-03-16T01:01:56.081Z,6.37
2023-03-16T01:04:22.360Z,6.17
2023-03-16T01:06:49.200Z,5.63
2023-03-16T01:09:15.415Z,5.97
2023-03-16T01:11:42.401Z,5.70
2023-03-16T01:14:10.132Z,6.07
2023-03-16T01:16:36.911Z,5.50
2023-03-16T01:19:03.132Z,5.17
2023-03-16T01:21:31.737Z,6.03
2023-03-16T01:23:57.851Z,6.20
2023-03-16T01:26:24.563Z,5.23
2023-03-16T01:28:50.971Z,6.10
2023-03-16T01:31:17.538Z,5.90
2023-03-16T01:33:44.115Z,5.93
2023-03-16T01:36:16.901Z,5.80
2023-03-16T01:38:53.474Z,5.33
2023-03-16T01:41:21.312Z,5.13
2023-03-16T01:43:47.484Z,4.93
2023-03-16T01:46:18.816Z,4.80
2023-03-16T01:49:12.508Z,5.53
2023-03-16T01:51:43.037Z,4.40
2023-03-16T01:54:19.375Z,4.50
2023-03-16T01:57:05.164Z,3.83
2023-03-16T01:59:37.809Z,3.70
2023-03-16T02:02:05.534Z,3.50
2023-03-16T02:04:55.121Z,3.60
2023-03-16T02:07:25.086Z,3.40
2023-03-16T02:09:56.835Z,3.80
2023-03-16T02:12:23.876Z,3.93
2023-03-16T02:14:53.349Z,3.23
2023-03-16T02:17:23.570Z,3.43
2023-03-16T02:20:13.280Z,4.23
2023-03-16T02:22:46.104Z,4.47
2023-03-16T02:25:14.687Z,4.03
2023-03-16T02:28:18.907Z,4.27
2023-03-16T02:30:47.157Z,3.57
2023-03-16T02:33:16.681Z,4.03
2023-03-16T02:35:43.988Z,3.80
2023-03-16T02:38:10.450Z,3.63
2023-03-16T02:40:45.136Z,3.67
2023-03-16T02:43:18.043Z,2.83
2023-03-16T02:45:56.040Z,3.23
2023-03-16T02:48:34.062Z,3.37
2023-03-16T02:51:00.243Z,3.27
2023-03-16T02:53:27.514Z,2.93
2023-03-16T02:55:56.011Z,3.17
2023-03-16T02:58:22.763Z,3.80
2023-03-16T03:00:49.392Z,3.33
2023-03-16T03:03:17.658Z,3.27
2023-03-16T03:05:43.803Z,3.27
2023-03-16T03:08:10.400Z,3.13
2023-03-16T03:10:37.212Z,2.90
2023-03-16T03:13:03.821Z,3.33
2023-03-16T03:15:30.007Z,3.07
2023-03-16T03:18:01.740Z,3.33
2023-03-16T03:20:30.398Z,3.27
2023-03-16T03:22:57.092Z,3.00
2023-03-16T03:25:23.544Z,3.43
2023-03-16T03:27:55.460Z,3.03
2023-03-16T03:30:24.910Z,3.27
2023-03-16T03:32:51.706Z,3.20
2023-03-16T03:35:20.664Z,3.30
2023-03-16T03:37:47.420Z,2.70
2023-03-16T03:40:16.389Z,3.47
2023-03-16T03:42:45.724Z,3.40
2023-03-16T03:45:13.588Z,3.10
2023-03-16T03:47:43.833Z,3.50
2023-03-16T03:50:14.747Z,2.63
2023-03-16T03:52:57.239Z,2.93
2023-03-16T03:55:23.723Z,3.13
2023-03-16T03:57:50.557Z,3.20
2023-03-16T04:00:20.155Z,2.87
2023-03-16T04:02:47.262Z,2.40
2023-03-16T04:05:25.269Z,2.70
2023-03-16T04:07:54.366Z,2.67
2023-03-16T04:10:21.125Z,2.63
2023-03-16T04:12:47.589Z,3.60
2023-03-16T04:15:14.212Z,2.73
2023-03-16T04:18:02.637Z,3.37
2023-03-16T04:20:29.650Z,2.90
2023-03-16T04:22:57.600Z,3.27
2023-03-16T04:25:29.892Z,2.50
2023-03-16T04:27:57.452Z,3.10
2023-03-16T04:30:28.223Z,3.00
2023-03-16T04:33:04.020Z,3.30
2023-03-16T04:35:31.227Z,3.00
2023-03-16T04:37:57.873Z,2.77
2023-03-16T04:40:32.065Z,2.90
2023-03-16T04:43:13.006Z,2.97
2023-03-16T04:45:40.405Z,3.40
2023-03-16T04:48:07.177Z,2.50
2023-03-16T04:50:33.391Z,3.27
2023-03-16T04:53:00.078Z,3.10
2023-03-16T04:55:27.604Z,3.40
2023-03-16T04:57:54.423Z,3.37
2023-03-16T05:00:22.995Z,3.50
2023-03-16T05:03:13.448Z,3.37
2023-03-16T05:05:41.804Z,3.33
2023-03-16T05:08:10.170Z,3.13
2023-03-16T05:10:39.165Z,3.13
2023-03-16T05:13:06.209Z,3.03
2023-03-16T05:15:32.903Z,3.27
2023-03-16T05:18:06.538Z,3.27
2023-03-16T05:20:32.734Z,3.70
2023-03-16T05:23:01.276Z,3.40
2023-03-16T05:25:34.803Z,3.13
2023-03-16T05:28:06.406Z,3.90
2023-03-16T05:30:44.522Z,3.43
2023-03-16T05:33:15.063Z,3.63
2023-03-16T05:35:42.435Z,4.13
2023-03-16T05:38:12.298Z,3.70
2023-03-16T05:40:41.599Z,3.43
2023-03-16T05:43:16.074Z,3.53
2023-03-16T05:45:48.053Z,3.43
2023-03-16T05:48:17.303Z,3.63
2023-03-16T05:50:49.772Z,3.57
2023-03-16T05:53:19.267Z,3.97
2023-03-16T05:55:51.867Z,4.03
2023-03-16T05:58:18.969Z,4.10
2023-03-16T06:00:45.676Z,4.00
2023-03-16T06:03:22.053Z,4.30
2023-03-16T06:05:48.966Z,3.07
2023-03-16T06:08:20.314Z,3.47
2023-03-16T06:10:50.725Z,3.17
2023-03-16T06:13:18.925Z,3.33
2023-03-16T06:15:45.330Z,3.33
2023-03-16T06:18:13.427Z,2.93
2023-03-16T06:20:39.621Z,3.40
2023-03-16T06:23:06.831Z,3.70
2023-03-16T06:25:33.477Z,3.07
2023-03-16T06:28:00.438Z,3.10
2023-03-16T06:30:27.368Z,2.93
2023-03-16T06:32:54.425Z,3.13
2023-03-16T06:35:20.927Z,2.80
2023-03-16T06:38:03.038Z,5.60
2023-03-16T06:40:41.584Z,2.90
2023-03-16T06:43:08.290Z,2.87
2023-03-16T06:45:35.000Z,2.87
2023-03-16T06:48:02.543Z,2.60
2023-03-16T06:50:29.045Z,3.07
2023-03-16T06:52:55.669Z,3.40
2023-03-16T06:55:21.708Z,2.90
2023-03-16T06:57:49.603Z,2.90
2023-03-16T07:00:18.506Z,3.03
2023-03-16T07:02:45.024Z,2.70
2023-03-16T07:05:28.093Z,2.67
2023-03-16T07:07:55.142Z,3.17
2023-03-16T07:10:24.638Z,2.80
2023-03-16T07:12:52.152Z,2.80
2023-03-16T07:15:18.997Z,3.23
2023-03-16T07:17:57.909Z,3.00
2023-03-16T07:20:26.383Z,3.30
2023-03-16T07:22:53.250Z,3.43
2023-03-16T07:25:21.330Z,3.10
2023-03-16T07:27:57.328Z,3.07
2023-03-16T07:30:29.340Z,3.03
2023-03-16T07:32:56.922Z,3.00
2023-03-16T07:35:25.873Z,2.70
2023-03-16T07:37:53.368Z,2.77
2023-03-16T07:40:20.476Z,2.80
2023-03-16T07:42:47.773Z,3.43
2023-03-16T07:45:20.860Z,3.07
2023-03-16T07:47:47.979Z,5.40
2023-03-16T07:50:50.913Z,3.33
2023-03-16T07:53:20.325Z,3.10
2023-03-16T07:55:51.590Z,3.07
2023-03-16T07:58:18.948Z,3.07
2023-03-16T08:00:47.741Z,3.10
2023-03-16T08:03:18.020Z,2.90
2023-03-16T08:05:45.871Z,3.70
2023-03-16T08:08:16.403Z,3.30
2023-03-16T08:10:43.464Z,3.37
2023-03-16T08:13:21.776Z,3.17
2023-03-16T08:15:57.720Z,3.37
2023-03-16T08:18:34.114Z,3.20
2023-03-16T08:21:01.287Z,3.10
2023-03-16T08:23:32.960Z,3.33
2023-03-16T08:26:00.737Z,2.93
2023-03-16T08:28:30.183Z,3.40
2023-03-16T08:30:58.724Z,2.90
2023-03-16T08:33:46.576Z,3.37
2023-03-16T08:36:16.512Z,2.67
2023-03-16T08:39:03.830Z,2.80
2023-03-16T08:41:35.074Z,3.30
2023-03-16T08:44:07.636Z,2.60
2023-03-16T08:46:35.236Z,2.33
2023-03-16T08:49:03.260Z,2.50
2023-03-16T08:51:31.828Z,2.67
2023-03-16T08:54:01.474Z,3.10
2023-03-16T08:56:29.830Z,2.27
2023-03-16T08:58:57.748Z,2.37
2023-03-16T09:01:24.969Z,2.17
2023-03-16T09:03:52.076Z,2.57
2023-03-16T09:06:21.152Z,3.93
2023-03-16T09:08:49.271Z,2.43
2023-03-16T09:11:18.071Z,2.30
2023-03-16T09:13:45.516Z,2.83
2023-03-16T09:16:15.034Z,3.00
2023-03-16T09:18:43.096Z,3.30
2023-03-16T09:21:12.431Z,2.37
2023-03-16T09:23:41.939Z,2.20
2023-03-16T09:26:11.971Z,2.33
2023-03-16T09:28:41.503Z,2.43
2023-03-16T09:31:14.507Z,1.80
2023-03-16T09:33:42.302Z,2.00
2023-03-16T09:36:10.732Z,2.37
2023-03-16T09:38:37.860Z,2.07
2023-03-16T09:41:15.717Z,2.23
2023-03-16T09:43:57.590Z,4.07
2023-03-16T09:46:27.147Z,2.93
2023-03-16T09:48:56.303Z,2.33
2023-03-16T09:51:30.367Z,2.87
2023-03-16T09:54:02.213Z,2.50
2023-03-16T09:56:41.362Z,1.90
2023-03-16T09:59:12.788Z,2.20
2023-03-16T10:02:16.809Z,2.10
2023-03-16T10:04:53.944Z,2.33
2023-03-16T10:07:58.779Z,2.10
2023-03-16T10:10:54.696Z,2.07
2023-03-16T10:13:45.988Z,2.00
2023-03-16T10:16:19.225Z,1.73
2023-03-16T10:18:48.889Z,1.60
2023-03-16T10:21:18.714Z,1.97
2023-03-16T10:23:47.994Z,1.80
2023-03-16T10:26:25.249Z,2.00
2023-03-16T10:28:54.234Z,2.00
2023-03-16T10:31:23.597Z,1.80
2023-03-16T10:33:57.731Z,2.00
2023-03-16T10:36:31.349Z,2.30
2023-03-16T10:39:01.261Z,1.70
2023-03-16T10:41:31.654Z,1.70
2023-03-16T10:44:09.390Z,1.80
2023-03-16T10:46:58.205Z,1.70
2023-03-16T10:49:35.520Z,1.43
2023-03-16T10:52:24.059Z,1.67
2023-03-16T10:54:59.457Z,1.83
2023-03-16T10:57:26.565Z,1.93
2023-03-16T10:59:56.894Z,1.70
2023-03-16T11:02:31.103Z,2.00
2023-03-16T11:04:57.797Z,1.87
2023-03-16T11:07:26.976Z,1.93
2023-03-16T11:09:57.905Z,1.93
2023-03-16T11:12:30.346Z,1.60
2023-03-16T11:15:23.593Z,1.50
2023-03-16T11:17:54.069Z,1.50
2023-03-16T11:20:25.704Z,1.87
2023-03-16T11:22:52.514Z,2.10
2023-03-16T11:25:28.156Z,1.60
2023-03-16T11:28:05.741Z,2.93
2023-03-16T11:30:49.765Z,1.83
2023-03-16T11:33:16.810Z,1.50
2023-03-16T11:35:58.741Z,1.70
2023-03-16T11:39:03.972Z,1.50
2023-03-16T11:41:39.943Z,1.50
2023-03-16T11:45:02.713Z,1.70
2023-03-16T11:47:35.311Z,1.60
2023-03-16T11:50:26.505Z,1.50
2023-03-16T11:53:13.162Z,2.07
2023-03-16T11:56:07.474Z,1.50
2023-03-16T11:58:43.049Z,1.70
2023-03-16T12:01:19.953Z,1.80
2023-03-16T12:04:17.663Z,1.40
2023-03-16T12:07:16.889Z,1.50
2023-03-16T12:10:01.642Z,1.57
2023-03-16T12:13:00.571Z,1.57
2023-03-16T12:15:51.471Z,1.10
2023-03-16T12:18:29.728Z,1.60
2023-03-16T12:21:04.850Z,1.50
2023-03-16T12:23:38.711Z,1.43
2023-03-16T12:26:05.411Z,1.73
2023-03-16T12:28:33.627Z,1.40
2023-03-16T12:31:17.224Z,1.57
2023-03-16T12:33:57.272Z,1.23
2023-03-16T12:36:41.678Z,1.23
2023-03-16T12:39:21.872Z,1.20
2023-03-16T12:42:06.503Z,1.17
2023-03-16T12:44:46.128Z,1.40
2023-03-16T12:47:23.742Z,1.53
2023-03-16T12:50:02.506Z,1.60
2023-03-16T12:52:43.191Z,1.30
2023-03-16T12:55:39.612Z,1.63
2023-03-16T12:58:08.631Z,1.77
2023-03-16T13:00:39.938Z,1.40
2023-03-16T13:03:16.435Z,1.53
2023-03-16T13:05:52.370Z,2.13
2023-03-16T13:08:20.696Z,1.37
2023-03-16T13:11:04.315Z,1.60
2023-03-16T13:13:32.182Z,1.60
2023-03-16T13:16:28.400Z,1.70
2023-03-16T13:18:57.052Z,1.77
2023-03-16T13:21:40.936Z,1.83
2023-03-16T13:24:26.248Z,1.63
2023-03-16T13:27:03.655Z,1.87
2023-03-16T13:29:32.342Z,1.50
2023-03-16T13:32:01.658Z,1.63
2023-03-16T13:34:32.105Z,1.70
2023-03-16T13:37:00.832Z,1.20
2023-03-16T13:39:31.594Z,1.20
2023-03-16T13:42:13.714Z,1.33
2023-03-16T13:44:42.207Z,1.47
2023-03-16T13:47:19.491Z,1.70
2023-03-16T13:49:50.171Z,1.43
2023-03-16T13:52:51.156Z,1.50
2023-03-16T13:55:23.066Z,1.40
2023-03-16T13:57:53.118Z,1.63
2023-03-16T14:00:41.084Z,1.30
2023-03-16T14:03:18.632Z,1.40
2023-03-16T14:05:45.123Z,3.83
2023-03-16T14:08:16.296Z,1.40
2023-03-16T14:10:44.403Z,1.53
2023-03-16T14:13:28.435Z,1.40
2023-03-16T14:15:57.664Z,1.53
2023-03-16T14:18:48.307Z,1.80
2023-03-16T14:21:22.597Z,1.67
2023-03-16T14:23:56.417Z,1.23
2023-03-16T14:26:23.028Z,2.37
2023-03-16T14:29:07.325Z,1.60
2023-03-16T14:31:39.020Z,1.60
2023-03-16T14:34:20.625Z,1.23
2023-03-16T14:36:47.426Z,1.30
2023-03-16T14:39:18.698Z,2.37
2023-03-16T14:41:49.655Z,1.40
2023-03-16T14:44:26.922Z,1.40
2023-03-16T14:46:58.872Z,1.40
2023-03-16T14:49:28.465Z,1.20
2023-03-16T14:52:01.565Z,1.33
2023-03-16T14:54:28.815Z,1.23
2023-03-16T14:57:00.224Z,1.30
2023-03-16T14:59:27.705Z,1.30
2023-03-16T15:01:54.763Z,1.47
2023-03-16T15:04:28.068Z,1.70
2023-03-16T15:06:54.767Z,1.13
2023-03-16T15:09:30.788Z,1.20
2023-03-16T15:11:57.459Z,1.67
2023-03-16T15:14:42.486Z,5.83
2023-03-16T15:17:08.823Z,26.40
2023-03-16T15:19:35.778Z,4.03
2023-03-16T15:22:03.057Z,1.50
2023-03-16T15:24:31.666Z,4.90
2023-03-16T15:26:58.746Z,47.87
2023-03-16T15:29:26.404Z,26.67
2023-03-16T15:31:54.490Z,7.27
2023-03-16T15:34:22.026Z,2.67
2023-03-16T15:36:48.883Z,1.50
2023-03-16T15:39:24.295Z,1.40
2023-03-16T15:41:51.274Z,1.90
2023-03-16T15:44:17.922Z,5.20
2023-03-16T15:46:44.550Z,3.40
2023-03-16T15:49:11.465Z,5.13
2023-03-16T15:51:37.700Z,2.60
2023-03-16T15:54:08.852Z,1.93
2023-03-16T15:56:52.690Z,1.70
2023-03-16T15:59:22.587Z,1.90
2023-03-16T16:01:50.093Z,17.90
2023-03-16T16:04:19.812Z,6.47
2023-03-16T16:06:48.630Z,8.07
2023-03-16T16:09:15.667Z,3.17
2023-03-16T16:11:42.742Z,10.33
2023-03-16T16:14:21.897Z,11.03
2023-03-16T16:16:48.514Z,14.33
2023-03-16T16:19:15.943Z,6.80
2023-03-16T16:21:43.130Z,5.70
2023-03-16T16:24:10.700Z,34.23
2023-03-16T16:26:51.624Z,51.57
2023-03-16T16:29:27.009Z,41.20
2023-03-16T16:31:53.668Z,21.77
2023-03-16T16:34:23.736Z,9.03
2023-03-16T16:36:50.514Z,10.83
2023-03-16T16:39:17.399Z,6.47
2023-03-16T16:41:44.100Z,7.57
2023-03-16T16:44:20.666Z,28.27
2023-03-16T16:46:49.567Z,48.20
2023-03-16T16:49:24.086Z,22.73
2023-03-16T16:51:51.996Z,74.90
2023-03-16T16:54:24.277Z,32.40
2023-03-16T16:56:53.864Z,26.87
2023-03-16T16:59:32.536Z,17.50
2023-03-16T17:02:01.144Z,11.73
2023-03-16T17:04:28.800Z,12.90
2023-03-16T17:06:59.045Z,17.10
2023-03-16T17:09:27.547Z,18.87
2023-03-16T17:11:58.024Z,35.60
2023-03-16T17:14:26.896Z,23.20
2023-03-16T17:16:53.722Z,16.30
2023-03-16T17:19:27.363Z,6.40
2023-03-16T17:21:56.679Z,12.90
2023-03-16T17:24:23.736Z,8.50
2023-03-16T17:26:53.419Z,8.10
2023-03-16T17:29:38.614Z,16.70
2023-03-16T17:32:24.378Z,18.33
2023-03-16T17:34:51.611Z,17.90
2023-03-16T17:37:20.405Z,10.30
2023-03-16T17:39:47.217Z,7.90
2023-03-16T17:42:19.449Z,7.30
2023-03-16T17:44:51.613Z,13.97
2023-03-16T17:47:30.709Z,12.97
2023-03-16T17:49:57.666Z,8.90
2023-03-16T17:52:26.276Z,5.90
2023-03-16T17:54:54.149Z,4.83
2023-03-16T17:57:26.666Z,4.53
2023-03-16T17:59:53.511Z,3.60
2023-03-16T18:02:38.296Z,10.50
2023-03-16T18:05:09.044Z,9.97
2023-03-16T18:07:35.745Z,20.90
2023-03-16T18:10:02.772Z,8.60
2023-03-16T18:12:29.577Z,7.33
2023-03-16T18:14:58.041Z,9.53
2023-03-16T18:17:32.003Z,8.13
2023-03-16T18:19:59.838Z,8.63
2023-03-16T18:22:27.477Z,7.57
2023-03-16T18:24:54.971Z,8.23
2023-03-16T18:27:21.677Z,15.43
2023-03-16T18:29:49.200Z,16.33
2023-03-16T18:32:28.722Z,19.07
2023-03-16T18:34:56.844Z,14.53
2023-03-16T18:37:25.557Z,12.83
2023-03-16T18:39:53.799Z,15.93
2023-03-16T18:42:27.018Z,23.70
2023-03-16T18:44:54.352Z,23.00
2023-03-16T18:47:30.705Z,14.43
2023-03-16T18:49:58.672Z,9.97
2023-03-16T18:52:28.508Z,6.83
2023-03-16T18:54:57.097Z,13.03
2023-03-16T18:57:26.659Z,13.37
2023-03-16T18:59:54.071Z,9.17
2023-03-16T19:02:38.326Z,7.67
2023-03-16T19:05:13.005Z,14.53
2023-03-16T19:07:45.733Z,13.53
2023-03-16T19:10:22.374Z,19.33
2023-03-16T19:12:49.236Z,19.20
2023-03-16T19:15:28.486Z,16.90
2023-03-16T19:17:56.249Z,15.00
2023-03-16T19:20:29.545Z,15.07
2023-03-16T19:23:05.260Z,14.67
2023-03-16T19:25:38.163Z,10.53
2023-03-16T19:28:07.247Z,6.50
2023-03-16T19:30:35.321Z,7.37
2023-03-16T19:33:01.969Z,8.40
2023-03-16T19:35:48.761Z,6.97
2023-03-16T19:38:17.959Z,6.03
2023-03-16T19:40:48.102Z,6.83
2023-03-16T19:43:19.885Z,6.77
2023-03-16T19:45:47.855Z,5.50
2023-03-16T19:48:32.320Z,5.50
2023-03-16T19:50:59.858Z,5.53
2023-03-16T19:53:26.837Z,6.03
2023-03-16T19:55:53.908Z,5.23
2023-03-16T19:58:37.853Z,5.60
2023-03-16T20:01:09.929Z,5.23
2023-03-16T20:03:37.964Z,5.30
2023-03-16T20:06:04.822Z,5.50
2023-03-16T20:08:31.164Z,5.27
2023-03-16T20:11:06.666Z,4.30
2023-03-16T20:13:35.562Z,4.90
2023-03-16T20:16:02.808Z,5.60
2023-03-16T20:18:29.379Z,4.43
2023-03-16T20:20:56.922Z,4.33
2023-03-16T20:23:26.762Z,4.80
2023-03-16T20:25:56.415Z,4.53
2023-03-16T20:28:27.164Z,4.83
2023-03-16T20:30:53.791Z,4.13
2023-03-16T20:33:23.819Z,4.20
2023-03-16T20:35:55.568Z,4.53
2023-03-16T20:38:22.882Z,4.37
2023-03-16T20:40:52.463Z,4.63
2023-03-16T20:43:26.890Z,4.50
2023-03-16T20:45:56.754Z,4.17
2023-03-16T20:48:24.838Z,4.47
2023-03-16T20:50:53.831Z,4.00
2023-03-16T20:53:20.885Z,4.77
2023-03-16T20:55:49.567Z,4.20
2023-03-16T20:58:23.817Z,4.07
2023-03-16T21:00:52.576Z,4.23
2023-03-16T21:03:21.976Z,4.70
2023-03-16T21:05:50.440Z,5.20
2023-03-16T21:08:18.432Z,4.27
2023-03-16T21:10:47.650Z,4.67
2023-03-16T21:13:32.118Z,5.27
2023-03-16T21:16:01.894Z,4.63
2023-03-16T21:18:30.163Z,5.63
2023-03-16T21:20:58.261Z,5.70
2023-03-16T21:23:24.937Z,6.33
2023-03-16T21:26:00.802Z,5.97
2023-03-16T21:28:31.968Z,5.90
2023-03-16T21:30:59.282Z,6.27
2023-03-16T21:33:38.387Z,6.43
2023-03-16T21:36:17.670Z,7.73
2023-03-16T21:38:45.350Z,6.87
2023-03-16T21:41:13.268Z,6.93
2023-03-16T21:43:39.855Z,7.30
2023-03-16T21:46:20.293Z,7.87
2023-03-16T21:48:48.988Z,7.20
2023-03-16T21:51:19.478Z,7.60
2023-03-16T21:53:47.221Z,7.63
2023-03-16T21:56:16.255Z,8.00
2023-03-16T21:58:43.599Z,8.30
2023-03-16T22:01:44.881Z,7.67
2023-03-16T22:04:17.353Z,7.57
2023-03-16T22:06:45.231Z,8.03
2023-03-16T22:09:29.189Z,8.57
2023-03-16T22:11:55.574Z,8.77
2023-03-16T22:14:21.741Z,9.17
2023-03-16T22:16:48.521Z,8.37
2023-03-16T22:19:16.958Z,9.43
2023-03-16T22:21:44.357Z,8.73
2023-03-16T22:24:20.216Z,8.53
2023-03-16T22:26:48.284Z,9.23
2023-03-16T22:29:22.721Z,8.10
2023-03-16T22:31:52.983Z,8.90
2023-03-16T22:34:26.689Z,7.33
2023-03-16T22:36:53.517Z,7.17
2023-03-16T22:39:19.818Z,7.70
2023-03-16T22:41:46.289Z,7.00
2023-03-16T22:44:20.212Z,7.43
2023-03-16T22:46:50.098Z,7.10
2023-03-16T22:49:26.462Z,7.73
2023-03-16T22:51:56.581Z,7.70
2023-03-16T22:54:26.610Z,7.60
2023-03-16T22:56:53.792Z,7.90
2023-03-16T22:59:24.191Z,7.20
2023-03-16T23:01:51.143Z,7.43
2023-03-16T23:04:22.795Z,8.07
2023-03-16T23:06:53.226Z,8.93
2023-03-16T23:09:21.081Z,8.30
2023-03-16T23:11:53.422Z,8.03
2023-03-16T23:14:22.894Z,8.00
2023-03-16T23:16:51.916Z,8.17
2023-03-16T23:19:25.759Z,7.77
2023-03-16T23:21:54.110Z,8.80
2023-03-16T23:24:21.161Z,8.13
2023-03-16T23:26:49.049Z,8.23
2023-03-16T23:29:15.517Z,8.60
2023-03-16T23:31:42.465Z,8.87
2023-03-16T23:34:14.542Z,7.83
2023-03-16T23:36:41.412Z,9.03
2023-03-16T23:39:08.355Z,9.23
2023-03-16T23:41:36.732Z,9.90
2023-03-16T23:44:06.043Z,9.27
2023-03-16T23:46:33.699Z,8.60
2023-03-16T23:49:03.749Z,9.17
2023-03-16T23:51:35.534Z,8.80
2023-03-16T23:54:10.311Z,9.43
2023-03-16T23:56:37.003Z,9.73
2023-03-16T23:59:03.220Z,9.97
